sensor_id;sensor_type;location;lat;lon;timestamp;pressure;altitude;pressure_sealevel;temperature;humidity
32456;BME280;18912;43.270;27.942;2023-02-10T00:00:50;100270.25;;;-2.08;55.04
32456;BME280;18912;43.270;27.942;2023-02-10T00:03:16;100257.06;;;-2.26;55.86
32456;BME280;18912;43.270;27.942;2023-02-10T00:05:41;100266.56;;;-2.05;55.01
32456;BME280;18912;43.270;27.942;2023-02-10T00:08:07;100260.25;;;-2.20;54.96
32456;BME280;18912;43.270;27.942;2023-02-10T00:10:32;100272.41;;;-2.16;55.14
32456;BME280;18912;43.270;27.942;2023-02-10T00:12:57;100264.75;;;-2.22;55.40
32456;BME280;18912;43.270;27.942;2023-02-10T00:15:23;100269.44;;;-2.27;55.62
32456;BME280;18912;43.270;27.942;2023-02-10T00:17:48;100259.06;;;-2.31;55.42
32456;BME280;18912;43.270;27.942;2023-02-10T00:20:13;100261.78;;;-2.33;55.75
32456;BME280;18912;43.270;27.942;2023-02-10T00:22:39;100263.00;;;-2.57;56.29
32456;BME280;18912;43.270;27.942;2023-02-10T00:25:04;100261.38;;;-2.42;56.29
32456;BME280;18912;43.270;27.942;2023-02-10T00:27:30;100252.72;;;-2.46;56.37
32456;BME280;18912;43.270;27.942;2023-02-10T00:29:55;100250.16;;;-2.47;56.37
32456;BME280;18912;43.270;27.942;2023-02-10T00:32:20;100241.09;;;-2.60;56.84
32456;BME280;18912;43.270;27.942;2023-02-10T00:34:45;100249.41;;;-2.68;57.17
32456;BME280;18912;43.270;27.942;2023-02-10T00:37:11;100243.09;;;-2.84;58.16
32456;BME280;18912;43.270;27.942;2023-02-10T00:39:37;100241.16;;;-2.62;57.50
32456;BME280;18912;43.270;27.942;2023-02-10T00:42:03;100230.44;;;-2.59;57.36
32456;BME280;18912;43.270;27.942;2023-02-10T00:44:28;100238.38;;;-2.59;57.01
32456;BME280;18912;43.270;27.942;2023-02-10T00:46:53;100227.91;;;-2.62;56.85
32456;BME280;18912;43.270;27.942;2023-02-10T00:49:19;100228.44;;;-2.72;56.64
32456;BME280;18912;43.270;27.942;2023-02-10T00:51:44;100227.13;;;-2.64;56.38
32456;BME280;18912;43.270;27.942;2023-02-10T00:54:11;100226.22;;;-2.63;56.38
32456;BME280;18912;43.270;27.942;2023-02-10T00:56:38;100223.59;;;-2.81;56.20
32456;BME280;18912;43.270;27.942;2023-02-10T00:59:04;100229.53;;;-2.95;56.38
32456;BME280;18912;43.270;27.942;2023-02-10T01:01:29;100231.16;;;-2.74;56.06
32456;BME280;18912;43.270;27.942;2023-02-10T01:03:55;100230.66;;;-2.82;55.60
32456;BME280;18912;43.270;27.942;2023-02-10T01:06:20;100232.38;;;-2.81;55.78
32456;BME280;18912;43.270;27.942;2023-02-10T01:08:46;100212.78;;;-2.96;56.37
32456;BME280;18912;43.270;27.942;2023-02-10T01:11:12;100221.28;;;-3.08;56.60
32456;BME280;18912;43.270;27.942;2023-02-10T01:13:39;100223.38;;;-2.96;56.45
32456;BME280;18912;43.270;27.942;2023-02-10T01:16:07;100212.25;;;-3.02;56.87
32456;BME280;18912;43.270;27.942;2023-02-10T01:18:35;100213.34;;;-3.26;57.80
32456;BME280;18912;43.270;27.942;2023-02-10T01:21:05;100203.13;;;-3.15;57.59
32456;BME280;18912;43.270;27.942;2023-02-10T01:23:30;100207.22;;;-3.27;58.14
32456;BME280;18912;43.270;27.942;2023-02-10T01:25:56;100202.94;;;-3.11;57.88
32456;BME280;18912;43.270;27.942;2023-02-10T01:28:23;100202.56;;;-3.03;58.08
32456;BME280;18912;43.270;27.942;2023-02-10T01:30:49;100201.06;;;-3.09;57.86
32456;BME280;18912;43.270;27.942;2023-02-10T01:33:14;100204.75;;;-2.94;57.57
32456;BME280;18912;43.270;27.942;2023-02-10T01:35:39;100206.84;;;-2.82;57.52
32456;BME280;18912;43.270;27.942;2023-02-10T01:38:05;100200.06;;;-3.06;57.51
32456;BME280;18912;43.270;27.942;2023-02-10T01:40:31;100204.97;;;-2.80;57.26
32456;BME280;18912;43.270;27.942;2023-02-10T01:42:56;100202.34;;;-2.80;57.17
32456;BME280;18912;43.270;27.942;2023-02-10T01:45:32;100198.69;;;-2.77;56.80
32456;BME280;18912;43.270;27.942;2023-02-10T01:47:59;100200.06;;;-2.88;57.23
32456;BME280;18912;43.270;27.942;2023-02-10T01:50:31;100208.34;;;-2.76;56.61
32456;BME280;18912;43.270;27.942;2023-02-10T01:53:01;100207.47;;;-2.77;57.17
32456;BME280;18912;43.270;27.942;2023-02-10T01:55:28;100202.47;;;-2.83;56.92
32456;BME280;18912;43.270;27.942;2023-02-10T01:57:55;100210.59;;;-3.23;58.38
32456;BME280;18912;43.270;27.942;2023-02-10T02:00:21;100208.66;;;-3.01;57.58
32456;BME280;18912;43.270;27.942;2023-02-10T02:02:47;100212.59;;;-2.91;56.66
32456;BME280;18912;43.270;27.942;2023-02-10T02:07:48;100218.41;;;-2.85;56.09
32456;BME280;18912;43.270;27.942;2023-02-10T02:10:14;100216.66;;;-2.84;55.91
32456;BME280;18912;43.270;27.942;2023-02-10T02:13:01;100214.50;;;-2.76;55.47
32456;BME280;18912;43.270;27.942;2023-02-10T02:15:34;100217.44;;;-2.82;55.63
32456;BME280;18912;43.270;27.942;2023-02-10T02:18:11;100200.13;;;-2.89;55.52
32456;BME280;18912;43.270;27.942;2023-02-10T02:36:29;100188.47;;;-3.41;55.27
32456;BME280;18912;43.270;27.942;2023-02-10T02:39:04;100195.44;;;-3.38;55.85
32456;BME280;18912;43.270;27.942;2023-02-10T02:41:32;100185.91;;;-3.42;56.22
32456;BME280;18912;43.270;27.942;2023-02-10T02:43:58;100185.66;;;-3.56;56.57
32456;BME280;18912;43.270;27.942;2023-02-10T02:46:28;100182.59;;;-3.47;57.03
32456;BME280;18912;43.270;27.942;2023-02-10T02:49:20;100186.28;;;-3.31;56.80
32456;BME280;18912;43.270;27.942;2023-02-10T02:57:09;100191.59;;;-3.51;57.01
32456;BME280;18912;43.270;27.942;2023-02-10T03:00:00;100186.47;;;-3.36;56.45
32456;BME280;18912;43.270;27.942;2023-02-10T03:02:28;100184.59;;;-3.15;55.87
32456;BME280;18912;43.270;27.942;2023-02-10T03:04:55;100180.00;;;-3.29;55.92
32456;BME280;18912;43.270;27.942;2023-02-10T03:07:20;100189.34;;;-3.22;55.54
32456;BME280;18912;43.270;27.942;2023-02-10T03:09:46;100179.19;;;-3.31;55.71
32456;BME280;18912;43.270;27.942;2023-02-10T03:12:12;100173.13;;;-3.33;55.67
32456;BME280;18912;43.270;27.942;2023-02-10T03:14:37;100176.31;;;-3.26;55.84
32456;BME280;18912;43.270;27.942;2023-02-10T03:17:03;100176.44;;;-3.66;56.19
32456;BME280;18912;43.270;27.942;2023-02-10T03:19:29;100181.06;;;-3.33;55.71
32456;BME280;18912;43.270;27.942;2023-02-10T03:21:54;100169.47;;;-3.30;55.91
32456;BME280;18912;43.270;27.942;2023-02-10T03:24:20;100171.31;;;-3.32;55.91
32456;BME280;18912;43.270;27.942;2023-02-10T03:26:45;100167.69;;;-3.30;56.04
32456;BME280;18912;43.270;27.942;2023-02-10T03:29:11;100157.88;;;-3.28;56.04
32456;BME280;18912;43.270;27.942;2023-02-10T03:31:36;100161.75;;;-3.16;55.69
32456;BME280;18912;43.270;27.942;2023-02-10T03:34:02;100160.09;;;-3.19;55.68
32456;BME280;18912;43.270;27.942;2023-02-10T03:36:27;100166.25;;;-3.18;54.85
32456;BME280;18912;43.270;27.942;2023-02-10T03:38:52;100159.53;;;-3.25;54.04
32456;BME280;18912;43.270;27.942;2023-02-10T03:41:18;100159.38;;;-3.22;54.39
32456;BME280;18912;43.270;27.942;2023-02-10T03:43:43;100158.25;;;-3.35;54.38
32456;BME280;18912;43.270;27.942;2023-02-10T03:46:09;100152.44;;;-3.43;54.48
32456;BME280;18912;43.270;27.942;2023-02-10T03:48:34;100150.47;;;-3.38;54.30
32456;BME280;18912;43.270;27.942;2023-02-10T03:51:00;100147.47;;;-3.31;54.17
32456;BME280;18912;43.270;27.942;2023-02-10T03:53:26;100149.31;;;-3.33;53.48
32456;BME280;18912;43.270;27.942;2023-02-10T03:55:52;100143.69;;;-3.44;53.51
32456;BME280;18912;43.270;27.942;2023-02-10T03:58:17;100138.44;;;-3.45;53.40
32456;BME280;18912;43.270;27.942;2023-02-10T04:00:43;100136.31;;;-3.56;53.05
32456;BME280;18912;43.270;27.942;2023-02-10T04:03:08;100135.78;;;-3.45;52.82
32456;BME280;18912;43.270;27.942;2023-02-10T04:05:33;100134.28;;;-3.51;52.82
32456;BME280;18912;43.270;27.942;2023-02-10T04:07:59;100126.78;;;-3.41;52.70
32456;BME280;18912;43.270;27.942;2023-02-10T04:10:25;100135.66;;;-3.42;52.55
32456;BME280;18912;43.270;27.942;2023-02-10T04:12:50;100134.09;;;-3.46;52.42
32456;BME280;18912;43.270;27.942;2023-02-10T04:15:15;100129.16;;;-3.54;52.29
32456;BME280;18912;43.270;27.942;2023-02-10T04:17:41;100126.72;;;-3.58;52.20
32456;BME280;18912;43.270;27.942;2023-02-10T04:20:06;100131.22;;;-3.60;52.27
32456;BME280;18912;43.270;27.942;2023-02-10T04:22:32;100131.56;;;-3.68;52.15
32456;BME280;18912;43.270;27.942;2023-02-10T04:24:57;100129.16;;;-3.72;51.86
32456;BME280;18912;43.270;27.942;2023-02-10T04:27:22;100138.50;;;-3.84;51.64
32456;BME280;18912;43.270;27.942;2023-02-10T04:29:48;100141.88;;;-4.01;51.76
32456;BME280;18912;43.270;27.942;2023-02-10T04:32:13;100135.66;;;-4.00;52.14
32456;BME280;18912;43.270;27.942;2023-02-10T04:34:38;100129.91;;;-3.89;52.47
32456;BME280;18912;43.270;27.942;2023-02-10T04:37:04;100129.63;;;-3.83;52.19
32456;BME280;18912;43.270;27.942;2023-02-10T04:39:29;100134.84;;;-3.82;52.03
32456;BME280;18912;43.270;27.942;2023-02-10T04:41:54;100137.81;;;-3.89;51.97
32456;BME280;18912;43.270;27.942;2023-02-10T04:44:20;100137.81;;;-3.89;52.32
32456;BME280;18912;43.270;27.942;2023-02-10T04:46:45;100141.19;;;-3.86;52.31
32456;BME280;18912;43.270;27.942;2023-02-10T04:49:10;100141.25;;;-3.87;52.32
32456;BME280;18912;43.270;27.942;2023-02-10T04:51:35;100144.03;;;-3.90;52.30
32456;BME280;18912;43.270;27.942;2023-02-10T04:54:01;100143.97;;;-3.89;52.31
32456;BME280;18912;43.270;27.942;2023-02-10T04:56:26;100141.03;;;-4.01;52.67
32456;BME280;18912;43.270;27.942;2023-02-10T04:58:51;100148.53;;;-3.92;52.58
32456;BME280;18912;43.270;27.942;2023-02-10T05:01:17;100142.63;;;-3.97;51.90
32456;BME280;18912;43.270;27.942;2023-02-10T05:03:42;100140.09;;;-4.00;52.24
32456;BME280;18912;43.270;27.942;2023-02-10T05:06:08;100132.88;;;-3.97;52.19
32456;BME280;18912;43.270;27.942;2023-02-10T05:08:34;100132.94;;;-3.98;52.12
32456;BME280;18912;43.270;27.942;2023-02-10T05:11:00;100131.09;;;-3.96;52.39
32456;BME280;18912;43.270;27.942;2023-02-10T05:13:25;100129.66;;;-4.03;52.92
32456;BME280;18912;43.270;27.942;2023-02-10T05:15:50;100128.16;;;-4.09;53.67
32456;BME280;18912;43.270;27.942;2023-02-10T05:18:15;100129.19;;;-3.93;53.07
32456;BME280;18912;43.270;27.942;2023-02-10T05:20:41;100132.41;;;-3.86;52.72
32456;BME280;18912;43.270;27.942;2023-02-10T05:23:06;100124.69;;;-3.91;52.21
32456;BME280;18912;43.270;27.942;2023-02-10T05:25:31;100123.56;;;-3.85;52.27
32456;BME280;18912;43.270;27.942;2023-02-10T05:27:57;100120.72;;;-4.01;52.57
32456;BME280;18912;43.270;27.942;2023-02-10T05:30:22;100126.91;;;-3.82;52.23
32456;BME280;18912;43.270;27.942;2023-02-10T05:32:48;100126.81;;;-3.99;52.41
32456;BME280;18912;43.270;27.942;2023-02-10T05:35:13;100129.09;;;-3.91;52.56
32456;BME280;18912;43.270;27.942;2023-02-10T05:37:38;100132.78;;;-3.56;52.01
32456;BME280;18912;43.270;27.942;2023-02-10T05:40:04;100135.22;;;-3.33;51.45
32456;BME280;18912;43.270;27.942;2023-02-10T05:42:29;100134.09;;;-3.28;51.89
32456;BME280;18912;43.270;27.942;2023-02-10T05:44:55;100142.81;;;-3.26;52.20
32456;BME280;18912;43.270;27.942;2023-02-10T05:47:20;100137.25;;;-2.84;51.79
32456;BME280;18912;43.270;27.942;2023-02-10T05:49:45;100137.81;;;-2.96;51.70
32456;BME280;18912;43.270;27.942;2023-02-10T05:52:11;100144.47;;;-3.23;52.63
32456;BME280;18912;43.270;27.942;2023-02-10T05:54:36;100133.22;;;-2.74;52.34
32456;BME280;18912;43.270;27.942;2023-02-10T05:57:02;100146.72;;;-2.27;51.54
32456;BME280;18912;43.270;27.942;2023-02-10T05:59:27;100140.84;;;-1.82;51.29
32456;BME280;18912;43.270;27.942;2023-02-10T06:01:52;100144.75;;;-1.41;51.27
32456;BME280;18912;43.270;27.942;2023-02-10T06:04:18;100155.56;;;-0.98;50.44
32456;BME280;18912;43.270;27.942;2023-02-10T06:06:43;100151.63;;;-0.45;49.88
32456;BME280;18912;43.270;27.942;2023-02-10T06:09:08;100154.53;;;-0.05;49.21
32456;BME280;18912;43.270;27.942;2023-02-10T06:11:34;100148.25;;;-0.04;48.17
32456;BME280;18912;43.270;27.942;2023-02-10T06:13:59;100145.56;;;0.26;47.82
32456;BME280;18912;43.270;27.942;2023-02-10T06:16:25;100139.75;;;0.34;48.18
32456;BME280;18912;43.270;27.942;2023-02-10T06:18:50;100133.56;;;1.16;46.82
32456;BME280;18912;43.270;27.942;2023-02-10T06:21:15;100146.31;;;1.64;46.14
32456;BME280;18912;43.270;27.942;2023-02-10T06:23:41;100142.38;;;2.22;45.03
32456;BME280;18912;43.270;27.942;2023-02-10T06:26:06;100148.97;;;2.79;44.32
32456;BME280;18912;43.270;27.942;2023-02-10T06:28:32;100146.94;;;3.42;43.51
32456;BME280;18912;43.270;27.942;2023-02-10T06:30:57;100151.69;;;3.97;42.75
32456;BME280;18912;43.270;27.942;2023-02-10T06:33:23;100145.06;;;4.14;42.05
32456;BME280;18912;43.270;27.942;2023-02-10T06:35:48;100146.34;;;4.54;41.43
32456;BME280;18912;43.270;27.942;2023-02-10T06:38:14;100146.59;;;4.51;41.80
32456;BME280;18912;43.270;27.942;2023-02-10T06:40:39;100142.09;;;4.96;41.06
32456;BME280;18912;43.270;27.942;2023-02-10T06:43:04;100147.25;;;5.41;40.02
32456;BME280;18912;43.270;27.942;2023-02-10T06:45:29;100132.63;;;5.88;38.96
32456;BME280;18912;43.270;27.942;2023-02-10T06:47:55;100137.91;;;5.99;38.28
32456;BME280;18912;43.270;27.942;2023-02-10T06:50:20;100143.81;;;6.55;37.31
32456;BME280;18912;43.270;27.942;2023-02-10T06:52:46;100131.06;;;7.17;36.92
32456;BME280;18912;43.270;27.942;2023-02-10T06:55:12;100132.56;;;8.17;35.61
32456;BME280;18912;43.270;27.942;2023-02-10T06:57:37;100145.56;;;8.69;34.04
32456;BME280;18912;43.270;27.942;2023-02-10T07:00:04;100138.53;;;9.67;33.26
32456;BME280;18912;43.270;27.942;2023-02-10T07:02:30;100140.78;;;10.07;32.26
32456;BME280;18912;43.270;27.942;2023-02-10T07:04:55;100148.34;;;9.14;32.38
32456;BME280;18912;43.270;27.942;2023-02-10T07:07:20;100151.53;;;7.58;33.63
32456;BME280;18912;43.270;27.942;2023-02-10T07:09:46;100158.34;;;9.04;33.15
32456;BME280;18912;43.270;27.942;2023-02-10T07:12:11;100159.59;;;10.52;31.13
32456;BME280;18912;43.270;27.942;2023-02-10T07:14:36;100155.59;;;11.98;29.18
32456;BME280;18912;43.270;27.942;2023-02-10T07:17:06;100143.03;;;13.41;26.67
32456;BME280;18912;43.270;27.942;2023-02-10T07:19:31;100148.53;;;11.64;28.06
32456;BME280;18912;43.270;27.942;2023-02-10T07:21:57;100151.13;;;11.89;28.02
32456;BME280;18912;43.270;27.942;2023-02-10T07:24:22;100138.63;;;15.13;25.01
32456;BME280;18912;43.270;27.942;2023-02-10T07:26:47;100137.19;;;15.75;24.44
32456;BME280;18912;43.270;27.942;2023-02-10T07:29:13;100144.25;;;16.68;23.42
32456;BME280;18912;43.270;27.942;2023-02-10T07:31:38;100146.38;;;17.69;22.64
32456;BME280;18912;43.270;27.942;2023-02-10T07:34:03;100143.28;;;18.52;22.14
32456;BME280;18912;43.270;27.942;2023-02-10T07:36:29;100141.16;;;18.47;21.08
32456;BME280;18912;43.270;27.942;2023-02-10T07:38:54;100151.28;;;16.14;22.84
32456;BME280;18912;43.270;27.942;2023-02-10T07:41:19;100143.91;;;14.17;24.44
32456;BME280;18912;43.270;27.942;2023-02-10T07:43:45;100145.19;;;12.90;26.09
32456;BME280;18912;43.270;27.942;2023-02-10T07:46:10;100147.13;;;12.17;26.84
32456;BME280;18912;43.270;27.942;2023-02-10T07:48:35;100153.69;;;12.87;26.50
32456;BME280;18912;43.270;27.942;2023-02-10T07:51:01;100151.34;;;12.12;27.29
32456;BME280;18912;43.270;27.942;2023-02-10T07:53:27;100150.78;;;11.01;28.51
32456;BME280;18912;43.270;27.942;2023-02-10T07:55:52;100154.59;;;9.69;30.18
32456;BME280;18912;43.270;27.942;2023-02-10T07:58:17;100142.72;;;8.61;31.72
32456;BME280;18912;43.270;27.942;2023-02-10T08:00:43;100145.28;;;8.63;32.04
32456;BME280;18912;43.270;27.942;2023-02-10T08:03:11;100148.75;;;8.26;33.05
32456;BME280;18912;43.270;27.942;2023-02-10T08:05:37;100152.41;;;8.54;32.73
32456;BME280;18912;43.270;27.942;2023-02-10T08:08:02;100147.47;;;8.40;32.49
32456;BME280;18912;43.270;27.942;2023-02-10T08:10:28;100149.34;;;8.30;32.80
32456;BME280;18912;43.270;27.942;2023-02-10T08:12:53;100152.13;;;8.19;33.40
32456;BME280;18912;43.270;27.942;2023-02-10T08:15:18;100157.66;;;7.79;33.36
32456;BME280;18912;43.270;27.942;2023-02-10T08:17:45;100165.72;;;7.60;34.32
32456;BME280;18912;43.270;27.942;2023-02-10T08:20:11;100160.47;;;7.09;33.90
32456;BME280;18912;43.270;27.942;2023-02-10T08:22:36;100162.50;;;6.87;34.78
32456;BME280;18912;43.270;27.942;2023-02-10T08:25:03;100160.25;;;7.31;34.66
32456;BME280;18912;43.270;27.942;2023-02-10T08:27:29;100167.97;;;7.55;34.50
32456;BME280;18912;43.270;27.942;2023-02-10T08:29:55;100157.50;;;8.57;33.51
32456;BME280;18912;43.270;27.942;2023-02-10T08:32:20;100165.47;;;8.49;32.45
32456;BME280;18912;43.270;27.942;2023-02-10T08:34:46;100164.44;;;8.69;31.85
32456;BME280;18912;43.270;27.942;2023-02-10T08:37:12;100166.88;;;9.54;31.26
32456;BME280;18912;43.270;27.942;2023-02-10T08:39:37;100155.38;;;9.96;30.49
32456;BME280;18912;43.270;27.942;2023-02-10T08:42:03;100153.69;;;10.30;29.67
32456;BME280;18912;43.270;27.942;2023-02-10T08:44:28;100159.22;;;9.76;29.55
32456;BME280;18912;43.270;27.942;2023-02-10T08:46:53;100157.91;;;9.98;30.19
32456;BME280;18912;43.270;27.942;2023-02-10T08:49:18;100157.41;;;10.12;29.60
32456;BME280;18912;43.270;27.942;2023-02-10T08:51:44;100152.97;;;10.97;29.00
32456;BME280;18912;43.270;27.942;2023-02-10T08:54:09;100157.19;;;11.67;28.06
32456;BME280;18912;43.270;27.942;2023-02-10T08:56:34;100159.75;;;12.97;27.45
32456;BME280;18912;43.270;27.942;2023-02-10T08:59:00;100154.91;;;12.69;26.75
32456;BME280;18912;43.270;27.942;2023-02-10T09:01:25;100158.78;;;13.06;26.83
32456;BME280;18912;43.270;27.942;2023-02-10T09:03:51;100151.09;;;13.57;26.40
32456;BME280;18912;43.270;27.942;2023-02-10T09:06:24;100147.22;;;13.82;25.33
32456;BME280;18912;43.270;27.942;2023-02-10T09:08:50;100144.06;;;13.70;25.04
32456;BME280;18912;43.270;27.942;2023-02-10T09:11:17;100151.75;;;13.59;26.08
32456;BME280;18912;43.270;27.942;2023-02-10T09:13:43;100144.97;;;14.39;25.34
32456;BME280;18912;43.270;27.942;2023-02-10T09:16:08;100143.75;;;14.19;24.80
32456;BME280;18912;43.270;27.942;2023-02-10T09:18:33;100143.94;;;14.62;24.33
32456;BME280;18912;43.270;27.942;2023-02-10T09:20:59;100145.84;;;14.39;24.35
32456;BME280;18912;43.270;27.942;2023-02-10T09:23:25;100148.25;;;14.57;25.16
32456;BME280;18912;43.270;27.942;2023-02-10T09:25:57;100140.88;;;15.38;24.51
32456;BME280;18912;43.270;27.942;2023-02-10T09:28:23;100140.91;;;15.88;24.41
32456;BME280;18912;43.270;27.942;2023-02-10T09:30:48;100132.84;;;16.37;23.50
32456;BME280;18912;43.270;27.942;2023-02-10T09:33:14;100133.44;;;16.39;22.41
32456;BME280;18912;43.270;27.942;2023-02-10T09:35:39;100137.13;;;15.25;23.14
32456;BME280;18912;43.270;27.942;2023-02-10T09:38:05;100130.38;;;15.06;23.80
32456;BME280;18912;43.270;27.942;2023-02-10T09:40:32;100128.41;;;15.44;23.79
32456;BME280;18912;43.270;27.942;2023-02-10T09:43:06;100119.94;;;15.10;23.28
32456;BME280;18912;43.270;27.942;2023-02-10T09:45:35;100119.88;;;16.46;22.21
32456;BME280;18912;43.270;27.942;2023-02-10T09:51:15;100125.47;;;16.38;22.30
32456;BME280;18912;43.270;27.942;2023-02-10T09:53:45;100116.59;;;16.29;22.66
32456;BME280;18912;43.270;27.942;2023-02-10T09:56:17;100112.38;;;15.70;22.69
32456;BME280;18912;43.270;27.942;2023-02-10T09:58:44;100110.34;;;15.57;22.54
32456;BME280;18912;43.270;27.942;2023-02-10T10:04:03;100105.97;;;15.42;22.40
32456;BME280;18912;43.270;27.942;2023-02-10T10:06:34;100106.81;;;15.78;22.41
32456;BME280;18912;43.270;27.942;2023-02-10T10:13:52;100091.63;;;15.69;21.59
32456;BME280;18912;43.270;27.942;2023-02-10T10:24:16;100080.06;;;16.51;21.31
32456;BME280;18912;43.270;27.942;2023-02-10T10:31:48;100071.25;;;14.26;22.59
32456;BME280;18912;43.270;27.942;2023-02-10T10:34:16;100072.53;;;13.92;23.36
32456;BME280;18912;43.270;27.942;2023-02-10T10:36:49;100077.34;;;13.37;22.99
32456;BME280;18912;43.270;27.942;2023-02-10T10:39:23;100068.59;;;13.50;23.15
32456;BME280;18912;43.270;27.942;2023-02-10T10:41:53;100062.22;;;14.33;24.56
32456;BME280;18912;43.270;27.942;2023-02-10T10:44:19;100063.00;;;14.85;23.33
32456;BME280;18912;43.270;27.942;2023-02-10T10:46:49;100056.41;;;15.24;22.81
32456;BME280;18912;43.270;27.942;2023-02-10T10:49:16;100054.38;;;14.82;22.22
32456;BME280;18912;43.270;27.942;2023-02-10T10:51:41;100052.03;;;14.93;22.00
32456;BME280;18912;43.270;27.942;2023-02-10T10:54:10;100051.34;;;15.21;22.14
32456;BME280;18912;43.270;27.942;2023-02-10T10:59:15;100051.75;;;15.03;22.54
32456;BME280;18912;43.270;27.942;2023-02-10T11:01:43;100052.59;;;15.04;23.08
32456;BME280;18912;43.270;27.942;2023-02-10T11:06:37;100048.00;;;15.69;23.02
32456;BME280;18912;43.270;27.942;2023-02-10T11:09:05;100036.16;;;15.83;22.54
32456;BME280;18912;43.270;27.942;2023-02-10T11:11:35;100034.09;;;15.85;22.09
32456;BME280;18912;43.270;27.942;2023-02-10T11:14:02;100030.72;;;14.97;22.86
32456;BME280;18912;43.270;27.942;2023-02-10T11:16:28;100022.94;;;14.13;22.75
32456;BME280;18912;43.270;27.942;2023-02-10T11:18:57;100028.16;;;13.55;24.33
32456;BME280;18912;43.270;27.942;2023-02-10T11:21:36;100022.66;;;13.63;24.01
32456;BME280;18912;43.270;27.942;2023-02-10T11:24:02;100023.00;;;12.98;25.42
32456;BME280;18912;43.270;27.942;2023-02-10T11:26:27;100004.00;;;13.37;24.45
32456;BME280;18912;43.270;27.942;2023-02-10T11:28:53;99996.00;;;13.36;25.97
32456;BME280;18912;43.270;27.942;2023-02-10T11:31:28;100001.75;;;14.23;25.13
32456;BME280;18912;43.270;27.942;2023-02-10T11:36:33;100002.25;;;14.04;25.54
32456;BME280;18912;43.270;27.942;2023-02-10T11:39:01;100000.72;;;13.42;24.40
32456;BME280;18912;43.270;27.942;2023-02-10T11:41:28;99992.41;;;13.66;24.61
32456;BME280;18912;43.270;27.942;2023-02-10T11:43:54;99993.69;;;14.15;25.78
32456;BME280;18912;43.270;27.942;2023-02-10T11:46:21;99998.44;;;13.53;24.99
32456;BME280;18912;43.270;27.942;2023-02-10T11:48:54;99998.34;;;13.16;25.45
32456;BME280;18912;43.270;27.942;2023-02-10T11:51:20;100005.22;;;12.88;26.45
32456;BME280;18912;43.270;27.942;2023-02-10T11:53:46;100002.31;;;12.97;26.11
32456;BME280;18912;43.270;27.942;2023-02-10T11:56:20;99998.84;;;12.18;26.97
32456;BME280;18912;43.270;27.942;2023-02-10T12:04:02;99986.22;;;13.27;26.29
32456;BME280;18912;43.270;27.942;2023-02-10T12:06:33;99991.34;;;12.83;25.47
32456;BME280;18912;43.270;27.942;2023-02-10T12:11:28;99982.56;;;12.18;26.72
32456;BME280;18912;43.270;27.942;2023-02-10T12:14:02;99983.50;;;10.88;27.41
32456;BME280;18912;43.270;27.942;2023-02-10T12:18:58;99980.94;;;11.69;27.81
32456;BME280;18912;43.270;27.942;2023-02-10T12:24:25;99983.19;;;11.07;28.79
32456;BME280;18912;43.270;27.942;2023-02-10T12:26:54;99982.84;;;11.02;28.93
32456;BME280;18912;43.270;27.942;2023-02-10T12:42:26;99990.22;;;9.91;29.37
32456;BME280;18912;43.270;27.942;2023-02-10T12:45:38;99987.22;;;10.54;29.43
32456;BME280;18912;43.270;27.942;2023-02-10T12:52:59;99980.38;;;10.75;28.96
32456;BME280;18912;43.270;27.942;2023-02-10T13:03:30;99974.22;;;11.07;29.06
32456;BME280;18912;43.270;27.942;2023-02-10T13:08:31;99967.91;;;10.49;30.64
32456;BME280;18912;43.270;27.942;2023-02-10T13:10:59;99964.97;;;10.68;30.61
32456;BME280;18912;43.270;27.942;2023-02-10T13:13:29;99966.13;;;10.57;30.28
32456;BME280;18912;43.270;27.942;2023-02-10T13:16:12;99968.31;;;10.20;30.94
32456;BME280;18912;43.270;27.942;2023-02-10T13:35:55;99952.91;;;8.99;31.22
32456;BME280;18912;43.270;27.942;2023-02-10T13:38:22;99968.28;;;9.33;31.07
32456;BME280;18912;43.270;27.942;2023-02-10T13:40:53;99965.84;;;9.66;31.28
32456;BME280;18912;43.270;27.942;2023-02-10T13:43:40;99965.59;;;8.98;31.41
32456;BME280;18912;43.270;27.942;2023-02-10T13:46:05;99967.75;;;9.30;31.32
32456;BME280;18912;43.270;27.942;2023-02-10T13:48:41;99960.25;;;9.41;31.16
32456;BME280;18912;43.270;27.942;2023-02-10T13:51:08;99964.34;;;9.46;31.21
32456;BME280;18912;43.270;27.942;2023-02-10T13:58:52;99967.34;;;9.07;32.24
32456;BME280;18912;43.270;27.942;2023-02-10T14:01:49;99962.22;;;8.69;31.82
32456;BME280;18912;43.270;27.942;2023-02-10T14:04:46;99964.31;;;8.75;32.32
32456;BME280;18912;43.270;27.942;2023-02-10T14:07:16;99968.59;;;8.68;32.27
32456;BME280;18912;43.270;27.942;2023-02-10T14:09:42;99957.91;;;8.76;32.56
32456;BME280;18912;43.270;27.942;2023-02-10T14:12:37;99968.53;;;8.78;32.06
32456;BME280;18912;43.270;27.942;2023-02-10T14:15:36;99969.41;;;8.96;32.07
32456;BME280;18912;43.270;27.942;2023-02-10T14:18:06;99979.28;;;8.60;32.16
32456;BME280;18912;43.270;27.942;2023-02-10T14:20:46;99970.25;;;8.52;32.41
32456;BME280;18912;43.270;27.942;2023-02-10T14:23:18;99967.28;;;8.72;31.80
32456;BME280;18912;43.270;27.942;2023-02-10T14:25:46;99971.31;;;8.41;32.62
32456;BME280;18912;43.270;27.942;2023-02-10T14:28:25;99969.00;;;8.46;32.10
32456;BME280;18912;43.270;27.942;2023-02-10T14:30:55;99971.97;;;8.53;32.21
32456;BME280;18912;43.270;27.942;2023-02-10T14:33:29;99963.91;;;8.43;32.68
32456;BME280;18912;43.270;27.942;2023-02-10T14:35:58;99962.63;;;8.01;33.03
32456;BME280;18912;43.270;27.942;2023-02-10T14:38:30;99965.38;;;7.82;33.11
32456;BME280;18912;43.270;27.942;2023-02-10T14:40:57;99967.84;;;8.02;32.76
32456;BME280;18912;43.270;27.942;2023-02-10T14:43:29;99967.56;;;8.15;32.48